HBA weather

Hobart International Airport
Hobart, Tasmania, Australia

Public forecast

Using degrees Celsius for public forecast. Weather courtesy of forecast.io.

METAR (pilot weather report)

Retrieved 2017/08/17 03:30 UTC (0 seconds ago):

YMHB 170330Z 29018KT 9999 FEW040 SCT200 11/02 Q0988 RF00.0/000.0

TAF (pilot weather forecast)

Forecast is more than 12 hours old.

Retrieved 2017/08/16 00:36 UTC (1 day ago):

TAF YMHB 162332Z 1700/1724 34014KT 9999 -SHRA BKN030 FM170100 29018G30KT 9999 -SHRA SCT040 FM170600 32010KT 9999 SCT030 FM171900 25012KT 9999 -SHRA SCT025 INTER 1720/1724 4000 SHRA SCT015 BKN025